map of CME home
CME - Airport
Location
City:  Ciudad del Carmen, Campeche, México
Name:Ciudad del Carmen International Airport
ICAO:MMCE
IATA:CME

Details
Type:Airport (Aerodrome, Airfield)
Use:Public/Civil, International (customs port of entry)
Latitude:18°39'13"N (18.653739)
Longitude:91°47'56"W (-91.799016)
Datum:WGS 1984
Elevation:10 ft (3 m)
Variation:1.11°E (WMM2015v2 magnetic declination)
-0.11° annual change
Runways:1
Longest:7218 × 148 ft (2200 × 45 m), paved

Time
Time Zone:UTC-6 (DST-5)
Local Time:

Weather
METAR:MMCE 041353Z 12016KT 7SM SKC 24/21 A2992
TAF:MMCE 031705Z 0318/0418 13015KT P6SM SCT015 BKN230
FM032300 02010KT P6SM BKN015 BKN230
FM040600 10010KT P6SM BKN010 OVC050
FM041500 14010KT P6SM SCT010 BKN040

Related Locations
Nearby:
Farthest:CCK: 11715 mi / 18853 km
West Island (Pulau Panjang) [Cocos (Keeling) Islands], CC

Find:

   beyond  
but within

Other Information
Maps:
NOTAMs:
Links:
Sources:

  
  • flag of México
  • flag of Campeche
  

Sectional Chart

Flight Planning
at skyvector.com

Satellite Image

Google Maps Satellite view

 

Copyright © 2004-2019 Karl L. Swartz. All rights reserved.
The Great Circle Mapper name and logo are trademarks of the Great Circle Mapper.
All other trademarks mentioned herein belong to their respective owners.
Please see credits for attibutions and further copyright information.

  Follow gcmap on Facebook Follow gcmap on Twitter GCmap on LinkedIn

hCard Microformat

Geo Microformat